JBU137 KJFK-MDST
Flight info
| Callsign | JBU137 |
|---|---|
| Flight time | N/A |
| Altitude | 37000 |
| Route | SHIPP Y490 BEHHR/M079F370 Y490 ROLLE DCT ATUGI L454 LUCTI/N0459F370 L454 MNDEZ DCT SEKAR SEKAR2P |
| Aircraft | A21N/M-SDE2E3FGHIRWXY/LB1 |
Departure
| Time | 2026-05-07 16:35 |
|---|---|
| Airport | John F. Kennedy International Airport (KJFK) |
Arrival
| Time | N/A |
|---|---|
| Airport | Cibao International Airport (MDST) |
| Time | Latitude | Longitude | Altitude | Speed | Heading |
|---|---|---|---|---|---|
| 2026-05-07 15:30 | 40.64630 | -73.77304 | 22 ft | 0 kts | 180° |
| 2026-05-07 16:22 | 40.64645 | -73.77303 | 22 ft | 2 kts | 180° |
| 2026-05-07 16:22 | 40.64660 | -73.77303 | 22 ft | 2 kts | 178° |
| 2026-05-07 16:22 | 40.64674 | -73.77311 | 22 ft | 2 kts | 134° |
| 2026-05-07 16:23 | 40.64682 | -73.77328 | 22 ft | 2 kts | 99° |
| 2026-05-07 16:23 | 40.64682 | -73.77348 | 22 ft | 2 kts | 91° |
| 2026-05-07 16:23 | 40.64683 | -73.77367 | 22 ft | 2 kts | 95° |
| 2026-05-07 16:23 | 40.64684 | -73.77387 | 22 ft | 2 kts | 105° |
| 2026-05-07 16:24 | 40.64690 | -73.77405 | 22 ft | 2 kts | 124° |
| 2026-05-07 16:24 | 40.64699 | -73.77422 | 22 ft | 2 kts | 120° |
| 2026-05-07 16:24 | 40.64706 | -73.77438 | 22 ft | 2 kts | 121° |
| 2026-05-07 16:24 | 40.64714 | -73.77456 | 22 ft | 2 kts | 121° |
| 2026-05-07 16:25 | 40.64716 | -73.77460 | 22 ft | 0 kts | 120° |
| 2026-05-07 16:27 | 40.64711 | -73.77447 | 22 ft | 4 kts | 115° |
| 2026-05-07 16:27 | 40.64733 | -73.77390 | 22 ft | 10 kts | 31° |
| 2026-05-07 16:27 | 40.64782 | -73.77320 | 22 ft | 10 kts | 101° |
| 2026-05-07 16:28 | 40.64742 | -73.77223 | 22 ft | 13 kts | 121° |
| 2026-05-07 16:28 | 40.64678 | -73.77114 | 22 ft | 16 kts | 145° |
| 2026-05-07 16:28 | 40.64565 | -73.77090 | 22 ft | 17 kts | 180° |
| 2026-05-07 16:28 | 40.64440 | -73.77100 | 22 ft | 18 kts | 199° |
| 2026-05-07 16:29 | 40.64331 | -73.77183 | 22 ft | 18 kts | 210° |
| 2026-05-07 16:29 | 40.64217 | -73.77271 | 22 ft | 19 kts | 210° |
| 2026-05-07 16:29 | 40.64101 | -73.77363 | 22 ft | 19 kts | 211° |
| 2026-05-07 16:29 | 40.63981 | -73.77457 | 22 ft | 20 kts | 211° |
| 2026-05-07 16:30 | 40.63858 | -73.77552 | 22 ft | 20 kts | 210° |
| 2026-05-07 16:30 | 40.63732 | -73.77651 | 22 ft | 21 kts | 210° |
| 2026-05-07 16:30 | 40.63600 | -73.77753 | 22 ft | 22 kts | 211° |
| 2026-05-07 16:30 | 40.63468 | -73.77858 | 22 ft | 22 kts | 212° |
| 2026-05-07 16:31 | 40.63338 | -73.77962 | 22 ft | 18 kts | 205° |
| 2026-05-07 16:31 | 40.63238 | -73.78009 | 22 ft | 15 kts | 192° |
| 2026-05-07 16:31 | 40.63119 | -73.78032 | 22 ft | 19 kts | 205° |
| 2026-05-07 16:31 | 40.62990 | -73.78133 | 22 ft | 23 kts | 210° |
| 2026-05-07 16:32 | 40.62839 | -73.78250 | 22 ft | 26 kts | 211° |
| 2026-05-07 16:32 | 40.62678 | -73.78376 | 22 ft | 26 kts | 211° |
| 2026-05-07 16:32 | 40.62525 | -73.78496 | 22 ft | 24 kts | 211° |
| 2026-05-07 16:32 | 40.62380 | -73.78609 | 22 ft | 21 kts | 210° |
| 2026-05-07 16:33 | 40.62321 | -73.78654 | 22 ft | 0 kts | 210° |
| 2026-05-07 16:33 | 40.62319 | -73.78655 | 22 ft | 3 kts | 210° |
| 2026-05-07 16:34 | 40.62248 | -73.78635 | 22 ft | 15 kts | 125° |
| 2026-05-07 16:34 | 40.62230 | -73.78536 | 22 ft | 10 kts | 44° |
| 2026-05-07 16:34 | 40.62409 | -73.78397 | 22 ft | 63 kts | 30° |
| 2026-05-07 16:34 | 40.62987 | -73.77949 | 22 ft | 127 kts | 31° |
| 2026-05-07 16:35 | 40.63891 | -73.77229 | 141 ft | 167 kts | 27° |
| 2026-05-07 16:35 | 40.64873 | -73.76412 | 729 ft | 168 kts | 27° |
| 2026-05-07 16:35 | 40.65836 | -73.75583 | 1296 ft | 171 kts | 34° |
| 2026-05-07 16:35 | 40.66481 | -73.74223 | 1879 ft | 186 kts | 75° |
| 2026-05-07 16:36 | 40.66345 | -73.72478 | 2306 ft | 204 kts | 112° |
| 2026-05-07 16:36 | 40.65567 | -73.70847 | 2623 ft | 219 kts | 125° |
| 2026-05-07 16:36 | 40.64612 | -73.69191 | 2928 ft | 235 kts | 127° |
| 2026-05-07 16:36 | 40.63535 | -73.67405 | 3183 ft | 256 kts | 127° |
| 2026-05-07 16:37 | 40.62358 | -73.65546 | 3554 ft | 274 kts | 131° |
| 2026-05-07 16:37 | 40.61048 | -73.63685 | 4135 ft | 281 kts | 133° |
| 2026-05-07 16:37 | 40.59685 | -73.61797 | 4823 ft | 285 kts | 133° |
| 2026-05-07 16:37 | 40.58331 | -73.59921 | 5495 ft | 290 kts | 134° |
| 2026-05-07 16:38 | 40.56927 | -73.57974 | 6181 ft | 295 kts | 134° |
| 2026-05-07 16:38 | 40.55515 | -73.56004 | 6849 ft | 301 kts | 135° |
| 2026-05-07 16:38 | 40.54076 | -73.53976 | 7591 ft | 304 kts | 137° |
| 2026-05-07 16:38 | 40.52635 | -73.51960 | 8349 ft | 306 kts | 139° |
| 2026-05-07 16:39 | 40.51175 | -73.49952 | 9061 ft | 308 kts | 140° |
| 2026-05-07 16:39 | 40.49687 | -73.47897 | 9751 ft | 312 kts | 141° |
| 2026-05-07 16:39 | 40.48193 | -73.45821 | 10408 ft | 315 kts | 141° |
| 2026-05-07 16:39 | 40.46660 | -73.43710 | 10797 ft | 330 kts | 141° |
| 2026-05-07 16:40 | 40.45034 | -73.41470 | 11145 ft | 345 kts | 142° |
| 2026-05-07 16:40 | 40.43338 | -73.39147 | 11457 ft | 359 kts | 141° |
| 2026-05-07 16:40 | 40.41623 | -73.36766 | 12019 ft | 364 kts | 141° |
| 2026-05-07 16:40 | 40.39879 | -73.34337 | 12681 ft | 367 kts | 142° |
| 2026-05-07 16:41 | 40.38129 | -73.31917 | 13307 ft | 369 kts | 141° |
| 2026-05-07 16:41 | 40.36345 | -73.29458 | 13969 ft | 371 kts | 142° |
| 2026-05-07 16:41 | 40.34602 | -73.27010 | 14561 ft | 375 kts | 142° |
| 2026-05-07 16:41 | 40.32879 | -73.24365 | 15095 ft | 384 kts | 137° |
| 2026-05-07 16:42 | 40.31305 | -73.21539 | 15563 ft | 393 kts | 133° |
| 2026-05-07 16:42 | 40.29773 | -73.18500 | 16086 ft | 399 kts | 131° |
| 2026-05-07 16:42 | 40.28279 | -73.15455 | 16526 ft | 404 kts | 131° |
| 2026-05-07 16:42 | 40.26747 | -73.12355 | 17031 ft | 407 kts | 131° |
| 2026-05-07 16:43 | 40.25212 | -73.09251 | 17483 ft | 412 kts | 132° |
| 2026-05-07 16:43 | 40.23626 | -73.06084 | 17873 ft | 418 kts | 132° |
| 2026-05-07 16:43 | 40.22022 | -73.02874 | 18285 ft | 423 kts | 132° |
| 2026-05-07 16:43 | 40.20420 | -72.99658 | 18765 ft | 425 kts | 133° |
| 2026-05-07 16:44 | 40.18812 | -72.96439 | 19237 ft | 426 kts | 133° |
| 2026-05-07 16:44 | 40.17184 | -72.93186 | 19627 ft | 429 kts | 134° |
| 2026-05-07 16:44 | 40.15551 | -72.89932 | 19973 ft | 434 kts | 134° |
| 2026-05-07 16:44 | 40.13886 | -72.86623 | 20378 ft | 438 kts | 134° |
| 2026-05-07 16:45 | 40.12207 | -72.83282 | 20777 ft | 441 kts | 134° |
| 2026-05-07 16:45 | 40.10531 | -72.79936 | 21202 ft | 444 kts | 134° |
| 2026-05-07 16:45 | 40.08918 | -72.76469 | 21559 ft | 451 kts | 132° |
| 2026-05-07 16:45 | 40.07332 | -72.72957 | 21942 ft | 454 kts | 132° |
| 2026-05-07 16:46 | 40.05721 | -72.69372 | 22342 ft | 455 kts | 133° |
| 2026-05-07 16:46 | 40.04124 | -72.65829 | 22721 ft | 458 kts | 133° |
| 2026-05-07 16:46 | 40.02506 | -72.62257 | 23033 ft | 461 kts | 133° |
| 2026-05-07 16:46 | 40.00866 | -72.58647 | 23401 ft | 463 kts | 133° |
| 2026-05-07 16:47 | 39.99217 | -72.55032 | 23745 ft | 466 kts | 133° |
| 2026-05-07 16:47 | 39.97568 | -72.51414 | 24058 ft | 468 kts | 133° |
| 2026-05-07 16:47 | 39.95921 | -72.47767 | 24400 ft | 471 kts | 132° |
| 2026-05-07 16:47 | 39.94291 | -72.44075 | 24726 ft | 475 kts | 132° |
| 2026-05-07 16:48 | 39.92652 | -72.40334 | 25078 ft | 477 kts | 131° |
| 2026-05-07 16:48 | 39.91013 | -72.36582 | 25491 ft | 478 kts | 132° |
| 2026-05-07 16:48 | 39.89368 | -72.32835 | 25878 ft | 478 kts | 132° |
| 2026-05-07 16:48 | 39.87706 | -72.29065 | 26192 ft | 480 kts | 132° |
| 2026-05-07 16:49 | 39.86033 | -72.25272 | 26469 ft | 483 kts | 132° |
| 2026-05-07 16:49 | 39.84385 | -72.21505 | 26770 ft | 485 kts | 133° |
| 2026-05-07 16:49 | 39.82703 | -72.17728 | 27044 ft | 486 kts | 133° |
| 2026-05-07 16:49 | 39.81009 | -72.13932 | 27371 ft | 488 kts | 132° |
| 2026-05-07 16:50 | 39.79323 | -72.10126 | 27695 ft | 489 kts | 132° |
| 2026-05-07 16:50 | 39.77619 | -72.06276 | 28047 ft | 489 kts | 133° |
| 2026-05-07 16:50 | 39.75882 | -72.02550 | 28302 ft | 485 kts | 136° |
| 2026-05-07 16:50 | 39.73906 | -71.99037 | 28610 ft | 476 kts | 142° |
| 2026-05-07 16:51 | 39.71722 | -71.95895 | 28900 ft | 465 kts | 147° |
| 2026-05-07 16:51 | 39.69393 | -71.93007 | 29199 ft | 463 kts | 151° |
| 2026-05-07 16:51 | 39.67053 | -71.90195 | 29524 ft | 461 kts | 152° |
| 2026-05-07 16:51 | 39.64670 | -71.87418 | 29717 ft | 465 kts | 152° |
| 2026-05-07 16:52 | 39.62241 | -71.84553 | 29934 ft | 469 kts | 150° |
| 2026-05-07 16:52 | 39.59864 | -71.81715 | 30204 ft | 472 kts | 150° |
| 2026-05-07 16:52 | 39.57426 | -71.78789 | 30431 ft | 473 kts | 151° |
| 2026-05-07 16:52 | 39.54943 | -71.76067 | 30767 ft | 465 kts | 155° |
| 2026-05-07 16:53 | 39.52314 | -71.73740 | 31073 ft | 446 kts | 165° |
| 2026-05-07 16:53 | 39.49575 | -71.72166 | 31435 ft | 425 kts | 175° |
| 2026-05-07 16:53 | 39.46755 | -71.71246 | 31657 ft | 410 kts | 184° |
| 2026-05-07 16:53 | 39.43964 | -71.70887 | 31954 ft | 396 kts | 192° |
| 2026-05-07 16:54 | 39.41227 | -71.70843 | 32388 ft | 390 kts | 194° |
| 2026-05-07 16:54 | 39.38540 | -71.70831 | 32627 ft | 392 kts | 194° |
| 2026-05-07 16:54 | 39.35825 | -71.70824 | 32915 ft | 393 kts | 194° |
| 2026-05-07 16:54 | 39.33073 | -71.70820 | 33189 ft | 393 kts | 194° |
| 2026-05-07 16:55 | 39.30337 | -71.70818 | 33514 ft | 393 kts | 194° |
| 2026-05-07 16:55 | 39.27621 | -71.70808 | 33883 ft | 391 kts | 194° |
| 2026-05-07 16:55 | 39.24889 | -71.70801 | 34302 ft | 389 kts | 194° |
| 2026-05-07 16:55 | 39.22206 | -71.70794 | 34575 ft | 390 kts | 195° |
| 2026-05-07 16:56 | 39.19478 | -71.70791 | 34798 ft | 391 kts | 195° |
| 2026-05-07 16:56 | 39.16725 | -71.70788 | 35074 ft | 392 kts | 195° |
| 2026-05-07 16:56 | 39.11293 | -71.70780 | 35639 ft | 392 kts | 195° |
| 2026-05-07 16:57 | 39.08578 | -71.70780 | 35771 ft | 394 kts | 195° |
| 2026-05-07 16:57 | 39.05824 | -71.70779 | 35991 ft | 394 kts | 195° |
| 2026-05-07 16:57 | 39.03075 | -71.70770 | 36250 ft | 394 kts | 195° |
| 2026-05-07 16:57 | 39.00348 | -71.70766 | 36391 ft | 396 kts | 195° |
| 2026-05-07 16:58 | 38.97591 | -71.70766 | 36509 ft | 398 kts | 195° |
| 2026-05-07 16:58 | 38.94820 | -71.70766 | 36627 ft | 401 kts | 195° |
| 2026-05-07 16:58 | 38.92012 | -71.70764 | 36815 ft | 402 kts | 195° |
| 2026-05-07 16:58 | 38.89244 | -71.70757 | 36896 ft | 404 kts | 195° |
| 2026-05-07 16:59 | 38.83597 | -71.70754 | 36890 ft | 407 kts | 194° |
| 2026-05-07 16:59 | 38.77906 | -71.70740 | 36899 ft | 407 kts | 194° |
| 2026-05-07 17:00 | 38.72257 | -71.70731 | 36891 ft | 408 kts | 194° |
| 2026-05-07 17:00 | 38.66548 | -71.70717 | 36889 ft | 413 kts | 194° |
| 2026-05-07 17:01 | 38.60838 | -71.70715 | 36881 ft | 412 kts | 194° |
| 2026-05-07 17:01 | 38.55095 | -71.70709 | 36883 ft | 413 kts | 194° |
| 2026-05-07 17:02 | 38.49331 | -71.70709 | 36881 ft | 415 kts | 194° |
| 2026-05-07 17:02 | 38.43579 | -71.70684 | 36878 ft | 412 kts | 194° |
| 2026-05-07 17:03 | 38.37799 | -71.70689 | 36875 ft | 414 kts | 194° |
| 2026-05-07 17:03 | 38.32023 | -71.70686 | 36878 ft | 417 kts | 194° |
| 2026-05-07 17:04 | 38.26239 | -71.70687 | 36870 ft | 414 kts | 194° |
| 2026-05-07 17:04 | 38.20459 | -71.70656 | 36883 ft | 420 kts | 195° |
| 2026-05-07 17:05 | 38.14548 | -71.70642 | 36887 ft | 424 kts | 195° |
| 2026-05-07 17:05 | 38.08698 | -71.70672 | 36878 ft | 421 kts | 194° |
| 2026-05-07 17:06 | 38.02826 | -71.70651 | 36874 ft | 422 kts | 193° |
| 2026-05-07 17:06 | 37.96995 | -71.70654 | 36890 ft | 421 kts | 192° |
| 2026-05-07 17:07 | 37.91138 | -71.70622 | 36865 ft | 419 kts | 193° |
| 2026-05-07 17:07 | 37.85319 | -71.70618 | 36857 ft | 422 kts | 193° |
| 2026-05-07 17:08 | 37.79480 | -71.70608 | 36872 ft | 421 kts | 193° |
| 2026-05-07 17:08 | 37.73587 | -71.70620 | 36864 ft | 425 kts | 193° |
| 2026-05-07 17:09 | 37.67659 | -71.70649 | 36864 ft | 429 kts | 191° |
| 2026-05-07 17:09 | 37.61697 | -71.70548 | 36855 ft | 427 kts | 194° |
| 2026-05-07 17:10 | 37.55742 | -71.70596 | 36872 ft | 427 kts | 194° |
| 2026-05-07 17:10 | 37.49834 | -71.70596 | 36877 ft | 427 kts | 193° |
| 2026-05-07 17:11 | 37.43837 | -71.70577 | 36867 ft | 428 kts | 194° |
| 2026-05-07 17:11 | 37.37852 | -71.70431 | 36864 ft | 435 kts | 189° |
| 2026-05-07 17:12 | 37.31772 | -71.69791 | 36871 ft | 439 kts | 189° |
| 2026-05-07 17:12 | 37.25684 | -71.69185 | 36871 ft | 441 kts | 188° |
| 2026-05-07 17:13 | 37.19559 | -71.68530 | 36870 ft | 441 kts | 188° |
| 2026-05-07 17:13 | 37.13438 | -71.67902 | 36857 ft | 440 kts | 188° |
| 2026-05-07 17:14 | 37.07326 | -71.67281 | 36853 ft | 441 kts | 189° |
| 2026-05-07 17:14 | 37.01216 | -71.66646 | 36861 ft | 443 kts | 188° |
| 2026-05-07 17:15 | 36.95028 | -71.66009 | 36868 ft | 443 kts | 188° |
| 2026-05-07 17:15 | 36.88878 | -71.65347 | 36875 ft | 445 kts | 189° |
| 2026-05-07 17:16 | 36.82746 | -71.64740 | 36879 ft | 442 kts | 188° |
| 2026-05-07 17:16 | 36.76620 | -71.64097 | 36886 ft | 446 kts | 189° |
| 2026-05-07 17:17 | 36.70420 | -71.63469 | 36881 ft | 441 kts | 187° |
| 2026-05-07 17:17 | 36.64289 | -71.62839 | 36878 ft | 445 kts | 188° |
| 2026-05-07 17:18 | 36.58091 | -71.62219 | 36878 ft | 449 kts | 187° |
| 2026-05-07 17:18 | 36.51841 | -71.61562 | 36886 ft | 450 kts | 188° |
| 2026-05-07 17:19 | 36.45598 | -71.60935 | 36874 ft | 449 kts | 188° |
| 2026-05-07 17:19 | 36.39378 | -71.60297 | 36881 ft | 451 kts | 188° |
| 2026-05-07 17:20 | 36.33125 | -71.59669 | 36888 ft | 451 kts | 187° |
| 2026-05-07 17:20 | 36.26895 | -71.59029 | 36887 ft | 450 kts | 187° |
| 2026-05-07 17:21 | 36.20578 | -71.58401 | 36897 ft | 457 kts | 186° |
| 2026-05-07 17:21 | 36.14289 | -71.57741 | 36896 ft | 455 kts | 187° |
| 2026-05-07 17:22 | 36.07945 | -71.57104 | 36894 ft | 455 kts | 186° |
| 2026-05-07 17:22 | 36.01643 | -71.56480 | 36907 ft | 457 kts | 186° |
| 2026-05-07 17:23 | 35.95301 | -71.55840 | 36894 ft | 458 kts | 186° |
| 2026-05-07 17:23 | 35.88961 | -71.55197 | 36891 ft | 457 kts | 186° |
| 2026-05-07 17:24 | 35.82641 | -71.54562 | 36899 ft | 457 kts | 186° |
| 2026-05-07 17:24 | 35.76279 | -71.53938 | 36900 ft | 458 kts | 185° |
| 2026-05-07 17:25 | 35.69938 | -71.53291 | 36908 ft | 459 kts | 185° |
| 2026-05-07 17:25 | 35.63579 | -71.52503 | 36905 ft | 465 kts | 181° |
| 2026-05-07 17:26 | 35.57118 | -71.50980 | 36921 ft | 471 kts | 178° |
| 2026-05-07 17:26 | 35.50698 | -71.49331 | 36915 ft | 471 kts | 178° |
| 2026-05-07 17:27 | 35.44310 | -71.47669 | 36917 ft | 472 kts | 178° |
| 2026-05-07 17:27 | 35.37855 | -71.46032 | 36924 ft | 471 kts | 178° |
| 2026-05-07 17:28 | 35.31448 | -71.44402 | 36940 ft | 473 kts | 178° |
| 2026-05-07 17:28 | 35.25007 | -71.42773 | 36934 ft | 473 kts | 176° |
| 2026-05-07 17:29 | 35.18552 | -71.41110 | 36936 ft | 475 kts | 177° |
| 2026-05-07 17:29 | 35.12071 | -71.39457 | 36926 ft | 474 kts | 176° |
| 2026-05-07 17:30 | 35.05604 | -71.37827 | 36946 ft | 476 kts | 177° |
| 2026-05-07 17:30 | 34.99126 | -71.36179 | 36948 ft | 476 kts | 177° |
| 2026-05-07 17:31 | 34.92615 | -71.34534 | 36948 ft | 476 kts | 177° |
| 2026-05-07 17:31 | 34.86135 | -71.32895 | 36959 ft | 477 kts | 178° |
| 2026-05-07 17:32 | 34.79651 | -71.31267 | 36954 ft | 475 kts | 177° |
| 2026-05-07 17:32 | 34.74285 | -71.29914 | 36956 ft | 475 kts | 177° |
| 2026-05-07 17:33 | 34.66731 | -71.28027 | 36947 ft | 474 kts | 176° |
| 2026-05-07 17:33 | 34.60180 | -71.26382 | 36957 ft | 477 kts | 176° |
| 2026-05-07 17:34 | 34.53706 | -71.24738 | 36969 ft | 477 kts | 177° |
| 2026-05-07 17:34 | 34.47182 | -71.23118 | 36967 ft | 477 kts | 177° |
| 2026-05-07 17:35 | 34.40660 | -71.21504 | 36982 ft | 477 kts | 176° |
| 2026-05-07 17:35 | 34.34157 | -71.19875 | 36973 ft | 475 kts | 176° |
| 2026-05-07 17:36 | 34.27655 | -71.18255 | 36979 ft | 477 kts | 177° |
| 2026-05-07 17:36 | 34.21176 | -71.16652 | 36967 ft | 476 kts | 176° |
| 2026-05-07 17:37 | 34.14615 | -71.15028 | 36990 ft | 477 kts | 176° |
| 2026-05-07 17:37 | 34.08143 | -71.13430 | 36983 ft | 477 kts | 176° |
| 2026-05-07 17:38 | 34.01623 | -71.11795 | 36994 ft | 476 kts | 177° |
| 2026-05-07 17:38 | 33.95160 | -71.10214 | 36994 ft | 476 kts | 176° |
| 2026-05-07 17:39 | 33.88636 | -71.08609 | 36990 ft | 476 kts | 176° |
| 2026-05-07 17:39 | 33.82137 | -71.07000 | 37002 ft | 478 kts | 176° |
| 2026-05-07 17:40 | 33.75609 | -71.05403 | 37007 ft | 478 kts | 177° |
| 2026-05-07 17:40 | 33.69129 | -71.03808 | 37010 ft | 478 kts | 176° |
| 2026-05-07 17:41 | 33.62583 | -71.02225 | 37005 ft | 479 kts | 176° |
| 2026-05-07 17:41 | 33.56057 | -71.00615 | 37013 ft | 478 kts | 176° |
| 2026-05-07 17:42 | 33.49525 | -70.99005 | 37032 ft | 480 kts | 176° |
| 2026-05-07 17:42 | 33.42966 | -70.97433 | 37032 ft | 479 kts | 176° |
| 2026-05-07 17:43 | 33.36417 | -70.95821 | 37031 ft | 481 kts | 176° |
| 2026-05-07 17:43 | 33.29906 | -70.94247 | 37042 ft | 479 kts | 176° |
| 2026-05-07 17:44 | 33.23346 | -70.92652 | 37039 ft | 480 kts | 176° |
| 2026-05-07 17:44 | 33.16820 | -70.91087 | 37050 ft | 479 kts | 175° |
| 2026-05-07 17:45 | 33.10290 | -70.89487 | 37047 ft | 479 kts | 176° |
| 2026-05-07 17:45 | 33.03777 | -70.87914 | 37050 ft | 479 kts | 176° |
| 2026-05-07 17:46 | 32.97243 | -70.86347 | 37058 ft | 479 kts | 175° |
| 2026-05-07 17:46 | 32.90682 | -70.84766 | 37063 ft | 480 kts | 175° |
| 2026-05-07 17:47 | 32.84185 | -70.83199 | 37053 ft | 478 kts | 176° |
| 2026-05-07 17:47 | 32.77627 | -70.81632 | 37062 ft | 480 kts | 175° |
| 2026-05-07 17:48 | 32.71101 | -70.80063 | 37058 ft | 480 kts | 175° |
| 2026-05-07 17:48 | 32.64534 | -70.78490 | 37059 ft | 479 kts | 175° |
| 2026-05-07 17:49 | 32.57987 | -70.76917 | 37071 ft | 481 kts | 176° |
| 2026-05-07 17:49 | 32.51438 | -70.75372 | 37073 ft | 482 kts | 175° |
| 2026-05-07 17:50 | 32.44888 | -70.73803 | 37071 ft | 482 kts | 175° |
| 2026-05-07 17:50 | 32.38287 | -70.72236 | 37067 ft | 481 kts | 175° |
| 2026-05-07 17:51 | 32.31740 | -70.70684 | 37069 ft | 480 kts | 175° |
| 2026-05-07 17:51 | 32.25159 | -70.69122 | 37080 ft | 481 kts | 175° |
| 2026-05-07 17:52 | 32.18600 | -70.67557 | 37070 ft | 480 kts | 175° |
| 2026-05-07 17:52 | 32.12081 | -70.66025 | 37075 ft | 481 kts | 174° |
| 2026-05-07 17:53 | 32.05484 | -70.64458 | 37079 ft | 482 kts | 174° |
| 2026-05-07 17:53 | 31.98918 | -70.62895 | 37079 ft | 481 kts | 175° |
| 2026-05-07 17:54 | 31.92374 | -70.61367 | 37065 ft | 481 kts | 175° |
| 2026-05-07 17:54 | 31.85805 | -70.59827 | 37076 ft | 481 kts | 174° |
| 2026-05-07 17:55 | 31.79230 | -70.58288 | 37074 ft | 481 kts | 175° |
| 2026-05-07 17:55 | 31.72688 | -70.56741 | 37072 ft | 481 kts | 174° |
| 2026-05-07 17:56 | 31.66099 | -70.55209 | 37076 ft | 482 kts | 174° |
| 2026-05-07 17:56 | 31.59540 | -70.53664 | 37077 ft | 482 kts | 174° |
| 2026-05-07 17:57 | 31.54066 | -70.52385 | 37076 ft | 482 kts | 175° |
| 2026-05-07 17:57 | 31.46392 | -70.50588 | 37073 ft | 482 kts | 175° |
| 2026-05-07 17:58 | 31.39817 | -70.49071 | 37080 ft | 482 kts | 175° |
| 2026-05-07 17:58 | 31.33226 | -70.47553 | 37082 ft | 482 kts | 174° |
| 2026-05-07 17:59 | 31.26620 | -70.46027 | 37085 ft | 483 kts | 174° |
| 2026-05-07 17:59 | 31.20045 | -70.44502 | 37087 ft | 483 kts | 174° |
| 2026-05-07 18:00 | 31.13410 | -70.42968 | 37084 ft | 484 kts | 174° |
| 2026-05-07 18:00 | 31.06816 | -70.41442 | 37085 ft | 485 kts | 174° |
| 2026-05-07 18:01 | 31.00181 | -70.39900 | 37085 ft | 485 kts | 174° |
| 2026-05-07 18:01 | 30.93582 | -70.38383 | 37084 ft | 486 kts | 174° |
| 2026-05-07 18:02 | 30.83609 | -70.36089 | 37086 ft | 484 kts | 174° |
| 2026-05-07 18:03 | 30.77015 | -70.34576 | 37085 ft | 484 kts | 175° |
| 2026-05-07 18:03 | 30.70380 | -70.33055 | 37094 ft | 485 kts | 174° |
| 2026-05-07 18:04 | 30.63745 | -70.31532 | 37096 ft | 485 kts | 174° |
| 2026-05-07 18:04 | 30.57140 | -70.30022 | 37099 ft | 485 kts | 175° |
| 2026-05-07 18:05 | 30.50495 | -70.28505 | 37092 ft | 486 kts | 174° |
| 2026-05-07 18:05 | 30.43863 | -70.26989 | 37095 ft | 488 kts | 174° |
| 2026-05-07 18:06 | 30.37182 | -70.25465 | 37093 ft | 488 kts | 174° |
| 2026-05-07 18:06 | 30.30529 | -70.23957 | 37093 ft | 488 kts | 174° |
| 2026-05-07 18:07 | 30.23841 | -70.22446 | 37092 ft | 489 kts | 174° |
| 2026-05-07 18:07 | 30.17176 | -70.20936 | 37090 ft | 489 kts | 173° |
| 2026-05-07 18:08 | 30.10495 | -70.19410 | 37089 ft | 490 kts | 173° |
| 2026-05-07 18:08 | 30.03790 | -70.17884 | 37089 ft | 490 kts | 173° |
| 2026-05-07 18:09 | 29.97092 | -70.16370 | 37093 ft | 491 kts | 173° |
| 2026-05-07 18:09 | 29.90399 | -70.14857 | 37089 ft | 490 kts | 173° |
| 2026-05-07 18:10 | 29.83698 | -70.13353 | 37097 ft | 491 kts | 173° |
| 2026-05-07 18:10 | 29.76977 | -70.11845 | 37099 ft | 491 kts | 173° |
| 2026-05-07 18:11 | 29.70238 | -70.10333 | 37100 ft | 492 kts | 173° |
| 2026-05-07 18:11 | 29.63557 | -70.08832 | 37099 ft | 491 kts | 173° |
| 2026-05-07 18:12 | 29.56813 | -70.07323 | 37099 ft | 492 kts | 173° |
| 2026-05-07 18:12 | 29.50125 | -70.05822 | 37098 ft | 491 kts | 173° |
| 2026-05-07 18:13 | 29.43426 | -70.04325 | 37098 ft | 492 kts | 173° |
| 2026-05-07 18:13 | 29.36695 | -70.02827 | 37100 ft | 492 kts | 173° |
| 2026-05-07 18:14 | 29.29979 | -70.01327 | 37100 ft | 492 kts | 173° |
| 2026-05-07 18:14 | 29.23244 | -69.99831 | 37100 ft | 493 kts | 172° |
| 2026-05-07 18:15 | 29.16496 | -69.98331 | 37100 ft | 493 kts | 172° |
| 2026-05-07 18:15 | 29.09770 | -69.96844 | 37101 ft | 493 kts | 173° |
| 2026-05-07 18:16 | 29.02995 | -69.95344 | 37097 ft | 492 kts | 173° |
| 2026-05-07 18:16 | 28.96300 | -69.93865 | 37101 ft | 492 kts | 172° |
| 2026-05-07 18:17 | 28.89581 | -69.92382 | 37098 ft | 492 kts | 172° |
| 2026-05-07 18:17 | 28.82848 | -69.90897 | 37101 ft | 491 kts | 172° |
| 2026-05-07 18:18 | 28.76106 | -69.89412 | 37100 ft | 491 kts | 172° |
| 2026-05-07 18:18 | 28.69413 | -69.87936 | 37102 ft | 491 kts | 172° |
| 2026-05-07 18:19 | 28.62714 | -69.86462 | 37098 ft | 491 kts | 172° |
| 2026-05-07 18:19 | 28.56002 | -69.84988 | 37099 ft | 492 kts | 172° |
| 2026-05-07 18:20 | 28.49277 | -69.83513 | 37100 ft | 492 kts | 172° |
| 2026-05-07 18:20 | 28.42576 | -69.82046 | 37100 ft | 491 kts | 172° |
| 2026-05-07 18:21 | 28.35881 | -69.80582 | 37100 ft | 490 kts | 172° |
| 2026-05-07 18:21 | 28.29158 | -69.79118 | 37101 ft | 491 kts | 172° |
| 2026-05-07 18:22 | 28.22447 | -69.77656 | 37101 ft | 491 kts | 171° |
| 2026-05-07 18:22 | 28.15768 | -69.76193 | 37098 ft | 490 kts | 172° |
| 2026-05-07 18:23 | 28.09053 | -69.74731 | 37102 ft | 490 kts | 172° |
| 2026-05-07 18:23 | 28.02349 | -69.73277 | 37100 ft | 490 kts | 172° |
| 2026-05-07 18:24 | 27.95649 | -69.71822 | 37102 ft | 490 kts | 172° |
| 2026-05-07 18:24 | 27.88971 | -69.70377 | 37100 ft | 489 kts | 171° |
| 2026-05-07 18:25 | 27.82299 | -69.68922 | 37105 ft | 489 kts | 171° |
| 2026-05-07 18:25 | 27.75594 | -69.67469 | 37102 ft | 489 kts | 171° |
| 2026-05-07 18:26 | 27.68908 | -69.66024 | 37100 ft | 489 kts | 171° |
| 2026-05-07 18:26 | 27.62245 | -69.64593 | 37104 ft | 489 kts | 171° |
| 2026-05-07 18:27 | 27.55530 | -69.63148 | 37100 ft | 489 kts | 171° |
| 2026-05-07 18:27 | 27.48847 | -69.61715 | 37104 ft | 488 kts | 171° |
| 2026-05-07 18:28 | 27.42199 | -69.60272 | 37101 ft | 488 kts | 171° |
| 2026-05-07 18:28 | 27.35516 | -69.58834 | 37100 ft | 488 kts | 171° |
| 2026-05-07 18:29 | 27.28855 | -69.57407 | 37104 ft | 488 kts | 170° |
| 2026-05-07 18:29 | 27.22165 | -69.55960 | 37101 ft | 488 kts | 171° |
| 2026-05-07 18:30 | 27.15479 | -69.54536 | 37100 ft | 488 kts | 171° |
| 2026-05-07 18:30 | 27.08808 | -69.53114 | 37102 ft | 488 kts | 171° |
| 2026-05-07 18:31 | 27.02148 | -69.51697 | 37104 ft | 487 kts | 171° |
| 2026-05-07 18:31 | 26.95509 | -69.50284 | 37101 ft | 486 kts | 171° |
| 2026-05-07 18:32 | 26.88827 | -69.48861 | 37099 ft | 487 kts | 170° |
| 2026-05-07 18:32 | 26.82198 | -69.47452 | 37101 ft | 487 kts | 171° |
| 2026-05-07 18:33 | 26.75530 | -69.46036 | 37100 ft | 487 kts | 171° |
| 2026-05-07 18:33 | 26.68846 | -69.44617 | 37102 ft | 487 kts | 170° |
| 2026-05-07 18:34 | 26.62223 | -69.43210 | 37101 ft | 486 kts | 171° |
| 2026-05-07 18:34 | 26.55578 | -69.41809 | 37102 ft | 486 kts | 170° |
| 2026-05-07 18:35 | 26.48875 | -69.40391 | 37100 ft | 486 kts | 170° |
| 2026-05-07 18:35 | 26.42209 | -69.38980 | 37102 ft | 486 kts | 170° |
| 2026-05-07 18:36 | 26.35563 | -69.37584 | 37099 ft | 486 kts | 170° |
| 2026-05-07 18:36 | 26.28952 | -69.36195 | 37101 ft | 486 kts | 170° |
| 2026-05-07 18:37 | 26.22279 | -69.34792 | 37101 ft | 486 kts | 171° |
| 2026-05-07 18:37 | 26.15658 | -69.33400 | 37101 ft | 485 kts | 171° |
| 2026-05-07 18:38 | 26.09005 | -69.32005 | 37101 ft | 485 kts | 171° |
| 2026-05-07 18:38 | 26.02365 | -69.30615 | 37100 ft | 486 kts | 171° |
| 2026-05-07 18:39 | 25.95710 | -69.29227 | 37102 ft | 485 kts | 171° |
| 2026-05-07 18:39 | 25.89058 | -69.27844 | 37101 ft | 485 kts | 171° |
| 2026-05-07 18:40 | 25.82420 | -69.26464 | 37099 ft | 486 kts | 171° |
| 2026-05-07 18:40 | 25.75749 | -69.25075 | 37098 ft | 486 kts | 171° |
| 2026-05-07 18:41 | 25.69092 | -69.23687 | 37097 ft | 487 kts | 171° |
| 2026-05-07 18:41 | 25.62448 | -69.22304 | 37094 ft | 486 kts | 171° |
| 2026-05-07 18:42 | 25.55777 | -69.20922 | 37095 ft | 487 kts | 171° |
| 2026-05-07 18:42 | 25.49118 | -69.19531 | 37093 ft | 486 kts | 171° |
| 2026-05-07 18:43 | 25.42464 | -69.18150 | 37092 ft | 487 kts | 171° |
| 2026-05-07 18:43 | 25.35806 | -69.16776 | 37089 ft | 487 kts | 171° |
| 2026-05-07 18:44 | 25.29119 | -69.15389 | 37085 ft | 487 kts | 170° |
| 2026-05-07 18:44 | 25.22464 | -69.14011 | 37085 ft | 487 kts | 170° |
| 2026-05-07 18:45 | 25.15806 | -69.12631 | 37085 ft | 487 kts | 170° |
| 2026-05-07 18:45 | 25.09117 | -69.11249 | 37082 ft | 488 kts | 170° |
| 2026-05-07 18:46 | 25.02453 | -69.09872 | 37081 ft | 488 kts | 170° |
| 2026-05-07 18:46 | 24.95803 | -69.08399 | 37091 ft | 488 kts | 168° |
| 2026-05-07 18:47 | 24.89162 | -69.06741 | 37095 ft | 488 kts | 167° |
| 2026-05-07 18:47 | 24.82558 | -69.05100 | 37098 ft | 488 kts | 167° |
| 2026-05-07 18:48 | 24.75922 | -69.03469 | 37098 ft | 487 kts | 167° |
| 2026-05-07 18:48 | 24.69283 | -69.01842 | 37096 ft | 488 kts | 167° |
| 2026-05-07 18:49 | 24.62676 | -69.00230 | 37095 ft | 488 kts | 168° |
| 2026-05-07 18:49 | 24.56037 | -68.98612 | 37091 ft | 488 kts | 168° |
| 2026-05-07 18:50 | 24.49368 | -68.96995 | 37091 ft | 488 kts | 168° |
| 2026-05-07 18:50 | 24.42725 | -68.95383 | 37088 ft | 489 kts | 168° |
| 2026-05-07 18:51 | 24.36056 | -68.93758 | 37087 ft | 488 kts | 167° |
| 2026-05-07 18:51 | 24.29383 | -68.92114 | 37086 ft | 489 kts | 167° |
| 2026-05-07 18:52 | 24.22710 | -68.90469 | 37085 ft | 489 kts | 167° |
| 2026-05-07 18:52 | 24.16072 | -68.88834 | 37083 ft | 488 kts | 167° |
| 2026-05-07 18:53 | 24.09381 | -68.87186 | 37082 ft | 489 kts | 167° |
| 2026-05-07 18:53 | 24.02740 | -68.85555 | 37082 ft | 490 kts | 167° |
| 2026-05-07 18:54 | 23.96049 | -68.83917 | 37084 ft | 491 kts | 167° |
| 2026-05-07 18:54 | 23.89363 | -68.82286 | 37082 ft | 490 kts | 166° |
| 2026-05-07 18:55 | 23.82716 | -68.80641 | 37079 ft | 490 kts | 166° |
| 2026-05-07 18:55 | 23.76069 | -68.79001 | 37077 ft | 489 kts | 166° |
| 2026-05-07 18:56 | 23.69402 | -68.77380 | 37076 ft | 491 kts | 166° |
| 2026-05-07 18:56 | 23.62618 | -68.76308 | 37073 ft | 491 kts | 179° |
| 2026-05-07 18:57 | 23.55850 | -68.77217 | 37069 ft | 488 kts | 197° |
| 2026-05-07 18:57 | 23.49648 | -68.80063 | 37074 ft | 483 kts | 213° |
| 2026-05-07 18:58 | 23.43898 | -68.83903 | 37072 ft | 482 kts | 215° |
| 2026-05-07 18:58 | 23.38216 | -68.87744 | 37070 ft | 481 kts | 215° |
| 2026-05-07 18:59 | 23.32507 | -68.91554 | 37069 ft | 481 kts | 214° |
| 2026-05-07 18:59 | 23.26778 | -68.95356 | 37064 ft | 482 kts | 214° |
| 2026-05-07 19:00 | 23.21022 | -68.99167 | 37065 ft | 483 kts | 214° |
| 2026-05-07 19:00 | 23.15272 | -69.02966 | 37061 ft | 483 kts | 214° |
| 2026-05-07 19:01 | 23.09499 | -69.06774 | 37060 ft | 483 kts | 214° |
| 2026-05-07 19:01 | 23.03779 | -69.10547 | 37061 ft | 482 kts | 214° |
| 2026-05-07 19:02 | 22.98012 | -69.14336 | 37057 ft | 483 kts | 214° |
| 2026-05-07 19:02 | 22.92265 | -69.18121 | 37060 ft | 484 kts | 214° |
| 2026-05-07 19:03 | 22.86509 | -69.21909 | 37057 ft | 484 kts | 214° |
| 2026-05-07 19:03 | 22.80737 | -69.25696 | 37058 ft | 484 kts | 214° |
| 2026-05-07 19:04 | 22.74974 | -69.29472 | 37057 ft | 485 kts | 214° |
| 2026-05-07 19:04 | 22.69200 | -69.33248 | 37057 ft | 485 kts | 214° |
| 2026-05-07 19:05 | 22.63387 | -69.37044 | 37061 ft | 486 kts | 214° |
| 2026-05-07 19:05 | 22.57611 | -69.40823 | 37060 ft | 484 kts | 214° |
| 2026-05-07 19:06 | 22.51865 | -69.44580 | 37059 ft | 485 kts | 214° |
| 2026-05-07 19:06 | 22.43176 | -69.50246 | 37052 ft | 486 kts | 214° |
| 2026-05-07 19:07 | 22.37384 | -69.54024 | 37051 ft | 485 kts | 214° |
| 2026-05-07 19:07 | 22.31602 | -69.57787 | 37059 ft | 485 kts | 215° |
| 2026-05-07 19:08 | 22.25796 | -69.61564 | 37053 ft | 486 kts | 214° |
| 2026-05-07 19:08 | 22.20003 | -69.65337 | 37060 ft | 487 kts | 214° |
| 2026-05-07 19:09 | 22.14170 | -69.69122 | 37055 ft | 487 kts | 214° |
| 2026-05-07 19:09 | 22.08330 | -69.72889 | 37060 ft | 487 kts | 214° |
| 2026-05-07 19:10 | 22.02537 | -69.76654 | 37058 ft | 487 kts | 214° |
| 2026-05-07 19:10 | 21.96716 | -69.80424 | 37056 ft | 486 kts | 214° |
| 2026-05-07 19:11 | 21.90905 | -69.84167 | 37059 ft | 487 kts | 214° |
| 2026-05-07 19:11 | 21.85096 | -69.87946 | 37053 ft | 487 kts | 213° |
| 2026-05-07 19:12 | 21.79237 | -69.91711 | 37053 ft | 487 kts | 213° |
| 2026-05-07 19:12 | 21.73444 | -69.95439 | 37050 ft | 486 kts | 213° |
| 2026-05-07 19:13 | 21.67630 | -69.99187 | 37055 ft | 488 kts | 213° |
| 2026-05-07 19:13 | 21.61794 | -70.02947 | 37047 ft | 487 kts | 213° |
| 2026-05-07 19:14 | 21.55995 | -70.06665 | 37047 ft | 487 kts | 213° |
| 2026-05-07 19:14 | 21.50163 | -70.10419 | 37046 ft | 488 kts | 213° |
| 2026-05-07 19:15 | 21.44318 | -70.14156 | 37047 ft | 488 kts | 213° |
| 2026-05-07 19:15 | 21.38477 | -70.17905 | 37043 ft | 488 kts | 213° |
| 2026-05-07 19:16 | 21.32666 | -70.21624 | 37040 ft | 489 kts | 213° |
| 2026-05-07 19:16 | 21.26817 | -70.25364 | 37040 ft | 489 kts | 213° |
| 2026-05-07 19:17 | 21.20966 | -70.29104 | 37038 ft | 488 kts | 213° |
| 2026-05-07 19:17 | 21.15124 | -70.32835 | 37035 ft | 487 kts | 213° |
| 2026-05-07 19:18 | 21.09302 | -70.36551 | 36504 ft | 488 kts | 213° |
| 2026-05-07 19:18 | 21.06377 | -70.38425 | 35583 ft | 492 kts | 213° |
| 2026-05-07 19:18 | 21.03411 | -70.40324 | 34493 ft | 498 kts | 212° |
| 2026-05-07 19:19 | 21.00441 | -70.42220 | 33439 ft | 503 kts | 211° |
| 2026-05-07 19:19 | 20.97428 | -70.44138 | 32432 ft | 507 kts | 211° |
| 2026-05-07 19:19 | 20.94390 | -70.46066 | 31467 ft | 510 kts | 211° |
| 2026-05-07 19:19 | 20.91335 | -70.48002 | 30427 ft | 509 kts | 212° |
| 2026-05-07 19:20 | 20.88281 | -70.49939 | 29717 ft | 504 kts | 212° |
| 2026-05-07 19:20 | 20.85267 | -70.51855 | 29285 ft | 501 kts | 212° |
| 2026-05-07 19:20 | 20.82267 | -70.53760 | 28990 ft | 500 kts | 212° |
| 2026-05-07 19:20 | 20.79278 | -70.55656 | 28420 ft | 499 kts | 211° |
| 2026-05-07 19:21 | 20.76296 | -70.57546 | 27727 ft | 495 kts | 212° |
| 2026-05-07 19:21 | 20.73374 | -70.59398 | 27002 ft | 491 kts | 212° |
| 2026-05-07 19:21 | 20.70429 | -70.61260 | 26369 ft | 484 kts | 212° |
| 2026-05-07 19:21 | 20.67561 | -70.63078 | 25802 ft | 476 kts | 212° |
| 2026-05-07 19:22 | 20.64735 | -70.64872 | 25257 ft | 468 kts | 212° |
| 2026-05-07 19:22 | 20.61982 | -70.66615 | 24729 ft | 459 kts | 212° |
| 2026-05-07 19:22 | 20.59258 | -70.68346 | 24209 ft | 452 kts | 212° |
| 2026-05-07 19:22 | 20.56539 | -70.70073 | 23698 ft | 446 kts | 212° |
| 2026-05-07 19:23 | 20.53906 | -70.71743 | 23209 ft | 440 kts | 212° |
| 2026-05-07 19:23 | 20.51294 | -70.73397 | 22715 ft | 435 kts | 212° |
| 2026-05-07 19:23 | 20.48682 | -70.75049 | 22214 ft | 431 kts | 212° |
| 2026-05-07 19:23 | 20.46122 | -70.76666 | 21729 ft | 427 kts | 212° |
| 2026-05-07 19:24 | 20.43525 | -70.78205 | 21289 ft | 421 kts | 204° |
| 2026-05-07 19:24 | 20.40750 | -70.78933 | 21032 ft | 409 kts | 184° |
| 2026-05-07 19:24 | 20.37931 | -70.78684 | 20565 ft | 403 kts | 166° |
| 2026-05-07 19:24 | 20.35219 | -70.77969 | 20120 ft | 398 kts | 164° |
| 2026-05-07 19:25 | 20.32574 | -70.77229 | 19676 ft | 395 kts | 164° |
| 2026-05-07 19:25 | 20.29922 | -70.76502 | 19230 ft | 392 kts | 165° |
| 2026-05-07 19:25 | 20.27268 | -70.75789 | 18779 ft | 389 kts | 165° |
| 2026-05-07 19:25 | 20.24660 | -70.75095 | 18331 ft | 386 kts | 165° |
| 2026-05-07 19:26 | 20.22068 | -70.74411 | 17883 ft | 383 kts | 165° |
| 2026-05-07 19:26 | 20.19463 | -70.73728 | 17431 ft | 380 kts | 165° |
| 2026-05-07 19:26 | 20.16926 | -70.73066 | 16988 ft | 376 kts | 166° |
| 2026-05-07 19:26 | 20.14368 | -70.72399 | 16540 ft | 373 kts | 166° |
| 2026-05-07 19:27 | 20.11846 | -70.71744 | 16096 ft | 370 kts | 166° |
| 2026-05-07 19:27 | 20.09378 | -70.71105 | 15658 ft | 365 kts | 166° |
| 2026-05-07 19:27 | 20.06901 | -70.70462 | 15216 ft | 361 kts | 166° |
| 2026-05-07 19:27 | 20.04485 | -70.69834 | 14782 ft | 357 kts | 166° |
| 2026-05-07 19:28 | 20.02081 | -70.69208 | 14345 ft | 353 kts | 166° |
| 2026-05-07 19:28 | 19.99683 | -70.68581 | 13909 ft | 350 kts | 166° |
| 2026-05-07 19:28 | 19.97335 | -70.67969 | 13480 ft | 348 kts | 166° |
| 2026-05-07 19:28 | 19.94980 | -70.67358 | 13050 ft | 345 kts | 166° |
| 2026-05-07 19:29 | 19.92656 | -70.66760 | 12625 ft | 341 kts | 166° |
| 2026-05-07 19:29 | 19.90330 | -70.66162 | 12198 ft | 339 kts | 166° |
| 2026-05-07 19:29 | 19.88055 | -70.65575 | 11777 ft | 336 kts | 166° |
| 2026-05-07 19:29 | 19.85790 | -70.64985 | 11355 ft | 333 kts | 166° |
| 2026-05-07 19:30 | 19.83524 | -70.64397 | 10933 ft | 330 kts | 166° |
| 2026-05-07 19:30 | 19.81318 | -70.63826 | 10554 ft | 326 kts | 166° |
| 2026-05-07 19:30 | 19.79130 | -70.63261 | 10349 ft | 314 kts | 166° |
| 2026-05-07 19:30 | 19.77040 | -70.62721 | 10221 ft | 301 kts | 167° |
| 2026-05-07 19:31 | 19.75040 | -70.62189 | 10092 ft | 289 kts | 167° |
| 2026-05-07 19:31 | 19.73115 | -70.61703 | 9850 ft | 285 kts | 168° |
| 2026-05-07 19:31 | 19.71160 | -70.61210 | 9512 ft | 282 kts | 166° |
| 2026-05-07 19:31 | 19.69259 | -70.60734 | 9173 ft | 279 kts | 166° |
| 2026-05-07 19:32 | 19.67380 | -70.60246 | 8841 ft | 276 kts | 165° |
| 2026-05-07 19:32 | 19.65518 | -70.59751 | 8509 ft | 275 kts | 167° |
| 2026-05-07 19:32 | 19.64889 | -70.59621 | 8394 ft | 274 kts | 172° |
| 2026-05-07 19:32 | 19.64813 | -70.59611 | 8380 ft | 274 kts | 173° |